University Park, New Mexico
Current Conditions -  °F | °C
As of 1:55 PM on Tuesday 27 Jan 2015 (Local Time) from KLRU Reporting Station
Clear Clear  
Wind Chill: 64°   Ceiling: Unl
Heat Index: 64°   Visibility: 10mi
Dew Point: 36°   Wind: 0mph
Humidity: 36%   Direction: NA
Pressure: 30.26"   Gusts: NA
Location:  32.2825°N, 106.737°W
Report Text: KLRU 272055Z AUTO 00000KT 10SM CLR 18/02 A3026 RMK AO2 T01750021
Loading
Personal Weather Stations






























Interactive Weather Map New forecast layout! Learn more

10-Day Weather Forecast

Advertisements
Track Severe Weather on mobile